sensor_id;sensor_type;location;lat;lon;timestamp;P1;durP1;ratioP1;P2;durP2;ratioP2
17494;SDS011;8864;51.970;4.614;2023-08-08T00:00:53;4.65;;;1.30;;
17494;SDS011;8864;51.970;4.614;2023-08-08T00:03:20;6.78;;;1.40;;
17494;SDS011;8864;51.970;4.614;2023-08-08T00:05:48;4.32;;;1.15;;
17494;SDS011;8864;51.970;4.614;2023-08-08T00:08:15;3.58;;;1.38;;
17494;SDS011;8864;51.970;4.614;2023-08-08T00:10:42;6.25;;;1.20;;
17494;SDS011;8864;51.970;4.614;2023-08-08T00:13:09;4.28;;;1.27;;
17494;SDS011;8864;51.970;4.614;2023-08-08T00:15:37;3.38;;;1.02;;
17494;SDS011;8864;51.970;4.614;2023-08-08T00:18:04;5.13;;;1.30;;
17494;SDS011;8864;51.970;4.614;2023-08-08T00:20:31;6.93;;;1.67;;
17494;SDS011;8864;51.970;4.614;2023-08-08T00:23:00;10.30;;;1.40;;
17494;SDS011;8864;51.970;4.614;2023-08-08T00:25:27;4.95;;;1.65;;
17494;SDS011;8864;51.970;4.614;2023-08-08T00:27:54;2.60;;;1.20;;
17494;SDS011;8864;51.970;4.614;2023-08-08T00:30:20;6.25;;;1.38;;
17494;SDS011;8864;51.970;4.614;2023-08-08T00:32:47;8.13;;;1.67;;
17494;SDS011;8864;51.970;4.614;2023-08-08T00:35:14;5.70;;;1.58;;
17494;SDS011;8864;51.970;4.614;2023-08-08T00:37:41;3.88;;;1.05;;
17494;SDS011;8864;51.970;4.614;2023-08-08T00:40:10;3.17;;;1.60;;
17494;SDS011;8864;51.970;4.614;2023-08-08T00:42:37;4.47;;;1.30;;
17494;SDS011;8864;51.970;4.614;2023-08-08T00:45:04;4.38;;;1.40;;
17494;SDS011;8864;51.970;4.614;2023-08-08T00:47:32;6.40;;;1.45;;
17494;SDS011;8864;51.970;4.614;2023-08-08T00:50:00;4.40;;;1.45;;
17494;SDS011;8864;51.970;4.614;2023-08-08T00:52:27;6.00;;;1.85;;
17494;SDS011;8864;51.970;4.614;2023-08-08T00:54:55;4.80;;;1.52;;
17494;SDS011;8864;51.970;4.614;2023-08-08T00:57:23;6.55;;;1.65;;
17494;SDS011;8864;51.970;4.614;2023-08-08T00:59:51;4.03;;;1.38;;
17494;SDS011;8864;51.970;4.614;2023-08-08T01:02:18;5.93;;;1.35;;
17494;SDS011;8864;51.970;4.614;2023-08-08T01:04:45;2.75;;;1.08;;
17494;SDS011;8864;51.970;4.614;2023-08-08T01:07:14;4.72;;;1.10;;
17494;SDS011;8864;51.970;4.614;2023-08-08T01:09:48;4.55;;;1.67;;
17494;SDS011;8864;51.970;4.614;2023-08-08T01:12:19;3.58;;;1.15;;
17494;SDS011;8864;51.970;4.614;2023-08-08T01:14:48;3.75;;;1.25;;
17494;SDS011;8864;51.970;4.614;2023-08-08T01:17:16;4.80;;;1.40;;
17494;SDS011;8864;51.970;4.614;2023-08-08T01:19:44;4.57;;;1.30;;
17494;SDS011;8864;51.970;4.614;2023-08-08T01:22:14;3.97;;;1.58;;
17494;SDS011;8864;51.970;4.614;2023-08-08T01:24:51;5.38;;;1.13;;
17494;SDS011;8864;51.970;4.614;2023-08-08T01:27:19;2.72;;;1.25;;
17494;SDS011;8864;51.970;4.614;2023-08-08T01:29:46;3.58;;;1.08;;
17494;SDS011;8864;51.970;4.614;2023-08-08T01:32:13;3.70;;;1.15;;
17494;SDS011;8864;51.970;4.614;2023-08-08T01:34:40;3.30;;;1.00;;
17494;SDS011;8864;51.970;4.614;2023-08-08T01:37:09;3.22;;;1.02;;
17494;SDS011;8864;51.970;4.614;2023-08-08T01:39:42;3.30;;;1.33;;
17494;SDS011;8864;51.970;4.614;2023-08-08T01:42:11;2.30;;;1.05;;
17494;SDS011;8864;51.970;4.614;2023-08-08T01:44:40;3.30;;;1.30;;
17494;SDS011;8864;51.970;4.614;2023-08-08T01:47:07;4.43;;;1.20;;
17494;SDS011;8864;51.970;4.614;2023-08-08T01:49:35;2.42;;;1.00;;
17494;SDS011;8864;51.970;4.614;2023-08-08T01:52:02;3.05;;;1.00;;
17494;SDS011;8864;51.970;4.614;2023-08-08T01:54:30;2.80;;;1.10;;
17494;SDS011;8864;51.970;4.614;2023-08-08T01:56:57;5.43;;;1.40;;
17494;SDS011;8864;51.970;4.614;2023-08-08T01:59:26;2.72;;;1.00;;
17494;SDS011;8864;51.970;4.614;2023-08-08T02:01:53;2.67;;;1.02;;
17494;SDS011;8864;51.970;4.614;2023-08-08T02:04:20;3.08;;;1.20;;
17494;SDS011;8864;51.970;4.614;2023-08-08T02:06:47;3.58;;;1.10;;
17494;SDS011;8864;51.970;4.614;2023-08-08T02:09:14;3.15;;;1.20;;
17494;SDS011;8864;51.970;4.614;2023-08-08T02:11:41;4.32;;;1.10;;
17494;SDS011;8864;51.970;4.614;2023-08-08T02:14:08;3.95;;;1.30;;
17494;SDS011;8864;51.970;4.614;2023-08-08T02:16:37;4.72;;;1.30;;
17494;SDS011;8864;51.970;4.614;2023-08-08T02:19:04;2.33;;;1.02;;
17494;SDS011;8864;51.970;4.614;2023-08-08T02:21:31;2.75;;;1.30;;
17494;SDS011;8864;51.970;4.614;2023-08-08T02:23:58;3.15;;;1.15;;
17494;SDS011;8864;51.970;4.614;2023-08-08T02:26:25;2.78;;;1.00;;
17494;SDS011;8864;51.970;4.614;2023-08-08T02:28:55;2.35;;;1.10;;
17494;SDS011;8864;51.970;4.614;2023-08-08T02:31:22;3.22;;;1.10;;
17494;SDS011;8864;51.970;4.614;2023-08-08T02:33:50;2.72;;;1.13;;
17494;SDS011;8864;51.970;4.614;2023-08-08T02:36:18;2.55;;;0.90;;
17494;SDS011;8864;51.970;4.614;2023-08-08T02:38:45;1.33;;;0.90;;
17494;SDS011;8864;51.970;4.614;2023-08-08T02:41:12;3.45;;;1.08;;
17494;SDS011;8864;51.970;4.614;2023-08-08T02:43:38;2.33;;;0.90;;
17494;SDS011;8864;51.970;4.614;2023-08-08T02:46:05;2.90;;;0.90;;
17494;SDS011;8864;51.970;4.614;2023-08-08T02:48:32;2.13;;;0.90;;
17494;SDS011;8864;51.970;4.614;2023-08-08T02:51:01;2.50;;;1.13;;
17494;SDS011;8864;51.970;4.614;2023-08-08T02:53:28;2.38;;;0.98;;
17494;SDS011;8864;51.970;4.614;2023-08-08T02:55:55;3.55;;;0.93;;
17494;SDS011;8864;51.970;4.614;2023-08-08T02:58:22;1.20;;;0.80;;
17494;SDS011;8864;51.970;4.614;2023-08-08T03:00:49;4.32;;;1.02;;
17494;SDS011;8864;51.970;4.614;2023-08-08T03:03:17;2.42;;;1.13;;
17494;SDS011;8864;51.970;4.614;2023-08-08T03:05:44;2.53;;;1.10;;
17494;SDS011;8864;51.970;4.614;2023-08-08T03:08:13;2.60;;;0.93;;
17494;SDS011;8864;51.970;4.614;2023-08-08T03:10:40;3.30;;;0.90;;
17494;SDS011;8864;51.970;4.614;2023-08-08T03:13:07;2.78;;;1.00;;
17494;SDS011;8864;51.970;4.614;2023-08-08T03:15:34;2.00;;;1.00;;
17494;SDS011;8864;51.970;4.614;2023-08-08T03:18:01;3.70;;;0.90;;
17494;SDS011;8864;51.970;4.614;2023-08-08T03:20:28;2.45;;;1.33;;
17494;SDS011;8864;51.970;4.614;2023-08-08T03:22:55;1.88;;;1.00;;
17494;SDS011;8864;51.970;4.614;2023-08-08T03:25:23;1.45;;;0.90;;
17494;SDS011;8864;51.970;4.614;2023-08-08T03:27:50;3.75;;;1.20;;
17494;SDS011;8864;51.970;4.614;2023-08-08T03:30:17;0.80;;;0.60;;
17494;SDS011;8864;51.970;4.614;2023-08-08T03:32:44;4.53;;;1.10;;
17494;SDS011;8864;51.970;4.614;2023-08-08T03:35:11;1.38;;;0.80;;
17494;SDS011;8864;51.970;4.614;2023-08-08T03:37:39;1.85;;;0.88;;
17494;SDS011;8864;51.970;4.614;2023-08-08T03:40:07;1.30;;;0.90;;
17494;SDS011;8864;51.970;4.614;2023-08-08T03:42:35;1.70;;;0.90;;
17494;SDS011;8864;51.970;4.614;2023-08-08T03:45:02;3.42;;;1.00;;
17494;SDS011;8864;51.970;4.614;2023-08-08T03:47:31;2.40;;;0.88;;
17494;SDS011;8864;51.970;4.614;2023-08-08T03:49:57;3.50;;;0.98;;
17494;SDS011;8864;51.970;4.614;2023-08-08T03:52:24;2.03;;;0.90;;
17494;SDS011;8864;51.970;4.614;2023-08-08T03:54:51;2.17;;;0.93;;
17494;SDS011;8864;51.970;4.614;2023-08-08T03:57:18;2.90;;;0.90;;
17494;SDS011;8864;51.970;4.614;2023-08-08T03:59:47;1.33;;;0.63;;
17494;SDS011;8864;51.970;4.614;2023-08-08T04:02:14;4.00;;;0.90;;
17494;SDS011;8864;51.970;4.614;2023-08-08T04:04:41;4.82;;;1.10;;
17494;SDS011;8864;51.970;4.614;2023-08-08T04:07:08;2.50;;;0.93;;
17494;SDS011;8864;51.970;4.614;2023-08-08T04:09:35;4.20;;;1.10;;
17494;SDS011;8864;51.970;4.614;2023-08-08T04:12:02;3.03;;;1.08;;
17494;SDS011;8864;51.970;4.614;2023-08-08T04:14:29;2.90;;;0.80;;
17494;SDS011;8864;51.970;4.614;2023-08-08T04:16:57;3.95;;;1.00;;
17494;SDS011;8864;51.970;4.614;2023-08-08T04:19:24;0.90;;;0.55;;
17494;SDS011;8864;51.970;4.614;2023-08-08T04:21:51;3.72;;;0.80;;
17494;SDS011;8864;51.970;4.614;2023-08-08T04:24:18;2.42;;;0.80;;
17494;SDS011;8864;51.970;4.614;2023-08-08T04:26:45;3.60;;;0.80;;
17494;SDS011;8864;51.970;4.614;2023-08-08T04:29:12;3.80;;;1.00;;
17494;SDS011;8864;51.970;4.614;2023-08-08T04:31:39;3.88;;;0.98;;
17494;SDS011;8864;51.970;4.614;2023-08-08T04:34:07;2.05;;;0.80;;
17494;SDS011;8864;51.970;4.614;2023-08-08T04:36:34;2.13;;;0.85;;
17494;SDS011;8864;51.970;4.614;2023-08-08T04:39:01;0.90;;;0.80;;
17494;SDS011;8864;51.970;4.614;2023-08-08T04:41:28;2.45;;;0.80;;
17494;SDS011;8864;51.970;4.614;2023-08-08T04:43:55;2.35;;;0.90;;
17494;SDS011;8864;51.970;4.614;2023-08-08T04:46:22;1.08;;;0.63;;
17494;SDS011;8864;51.970;4.614;2023-08-08T04:48:49;0.70;;;0.60;;
17494;SDS011;8864;51.970;4.614;2023-08-08T04:51:18;1.30;;;0.60;;
17494;SDS011;8864;51.970;4.614;2023-08-08T04:53:45;3.05;;;0.95;;
17494;SDS011;8864;51.970;4.614;2023-08-08T04:56:12;1.48;;;0.63;;
17494;SDS011;8864;51.970;4.614;2023-08-08T04:58:39;1.92;;;0.63;;
17494;SDS011;8864;51.970;4.614;2023-08-08T05:01:06;1.65;;;0.90;;
17494;SDS011;8864;51.970;4.614;2023-08-08T05:03:34;2.42;;;0.75;;
17494;SDS011;8864;51.970;4.614;2023-08-08T05:06:03;1.83;;;0.75;;
17494;SDS011;8864;51.970;4.614;2023-08-08T05:08:32;1.27;;;0.80;;
17494;SDS011;8864;51.970;4.614;2023-08-08T05:10:59;4.10;;;0.70;;
17494;SDS011;8864;51.970;4.614;2023-08-08T05:13:26;2.42;;;0.90;;
17494;SDS011;8864;51.970;4.614;2023-08-08T05:15:53;1.27;;;0.65;;
17494;SDS011;8864;51.970;4.614;2023-08-08T05:18:20;3.60;;;0.85;;
17494;SDS011;8864;51.970;4.614;2023-08-08T05:20:47;2.15;;;0.90;;
17494;SDS011;8864;51.970;4.614;2023-08-08T05:23:14;1.13;;;0.88;;
17494;SDS011;8864;51.970;4.614;2023-08-08T05:25:42;2.13;;;0.73;;
17494;SDS011;8864;51.970;4.614;2023-08-08T05:28:10;1.42;;;0.80;;
17494;SDS011;8864;51.970;4.614;2023-08-08T05:30:37;1.25;;;0.75;;
17494;SDS011;8864;51.970;4.614;2023-08-08T05:33:04;1.88;;;0.90;;
17494;SDS011;8864;51.970;4.614;2023-08-08T05:35:31;1.20;;;0.60;;
17494;SDS011;8864;51.970;4.614;2023-08-08T05:37:59;4.35;;;0.82;;
17494;SDS011;8864;51.970;4.614;2023-08-08T05:40:25;2.13;;;0.90;;
17494;SDS011;8864;51.970;4.614;2023-08-08T05:42:54;8.65;;;1.10;;
17494;SDS011;8864;51.970;4.614;2023-08-08T05:45:21;2.58;;;0.90;;
17494;SDS011;8864;51.970;4.614;2023-08-08T05:47:51;1.80;;;1.02;;
17494;SDS011;8864;51.970;4.614;2023-08-08T05:50:19;2.20;;;0.77;;
17494;SDS011;8864;51.970;4.614;2023-08-08T05:52:46;5.25;;;0.90;;
17494;SDS011;8864;51.970;4.614;2023-08-08T05:55:13;3.78;;;0.80;;
17494;SDS011;8864;51.970;4.614;2023-08-08T05:57:40;3.50;;;0.75;;
17494;SDS011;8864;51.970;4.614;2023-08-08T06:00:09;1.65;;;0.73;;
17494;SDS011;8864;51.970;4.614;2023-08-08T06:02:37;2.22;;;0.70;;
17494;SDS011;8864;51.970;4.614;2023-08-08T06:05:04;2.67;;;0.77;;
17494;SDS011;8864;51.970;4.614;2023-08-08T06:07:32;2.47;;;0.77;;
17494;SDS011;8864;51.970;4.614;2023-08-08T06:10:00;2.33;;;0.80;;
17494;SDS011;8864;51.970;4.614;2023-08-08T06:12:27;2.33;;;0.70;;
17494;SDS011;8864;51.970;4.614;2023-08-08T06:14:53;1.80;;;0.70;;
17494;SDS011;8864;51.970;4.614;2023-08-08T06:17:22;1.85;;;0.77;;
17494;SDS011;8864;51.970;4.614;2023-08-08T06:19:49;1.33;;;0.70;;
17494;SDS011;8864;51.970;4.614;2023-08-08T06:22:16;3.40;;;0.70;;
17494;SDS011;8864;51.970;4.614;2023-08-08T06:24:43;2.28;;;0.70;;
17494;SDS011;8864;51.970;4.614;2023-08-08T06:27:12;4.03;;;0.55;;
17494;SDS011;8864;51.970;4.614;2023-08-08T06:29:39;1.95;;;0.70;;
17494;SDS011;8864;51.970;4.614;2023-08-08T06:32:07;1.73;;;0.75;;
17494;SDS011;8864;51.970;4.614;2023-08-08T06:34:35;2.05;;;0.77;;
17494;SDS011;8864;51.970;4.614;2023-08-08T06:37:02;5.82;;;1.00;;
17494;SDS011;8864;51.970;4.614;2023-08-08T06:39:30;1.35;;;0.80;;
17494;SDS011;8864;51.970;4.614;2023-08-08T06:41:57;3.63;;;1.05;;
17494;SDS011;8864;51.970;4.614;2023-08-08T06:44:24;9.45;;;1.00;;
17494;SDS011;8864;51.970;4.614;2023-08-08T06:46:50;2.25;;;0.90;;
17494;SDS011;8864;51.970;4.614;2023-08-08T06:49:17;1.77;;;0.50;;
17494;SDS011;8864;51.970;4.614;2023-08-08T06:51:46;3.50;;;0.82;;
17494;SDS011;8864;51.970;4.614;2023-08-08T06:54:13;2.00;;;0.98;;
17494;SDS011;8864;51.970;4.614;2023-08-08T06:56:40;9.75;;;0.85;;
17494;SDS011;8864;51.970;4.614;2023-08-08T06:59:06;2.50;;;0.98;;
17494;SDS011;8864;51.970;4.614;2023-08-08T07:01:33;10.15;;;1.25;;
17494;SDS011;8864;51.970;4.614;2023-08-08T07:04:00;10.23;;;1.00;;
17494;SDS011;8864;51.970;4.614;2023-08-08T07:06:28;9.32;;;1.13;;
17494;SDS011;8864;51.970;4.614;2023-08-08T07:08:57;6.78;;;1.33;;
17494;SDS011;8864;51.970;4.614;2023-08-08T07:11:24;1.90;;;0.65;;
17494;SDS011;8864;51.970;4.614;2023-08-08T07:13:51;81.25;;;12.10;;
17494;SDS011;8864;51.970;4.614;2023-08-08T07:16:18;32.38;;;5.95;;
17494;SDS011;8864;51.970;4.614;2023-08-08T07:18:44;29.52;;;5.13;;
17494;SDS011;8864;51.970;4.614;2023-08-08T07:21:11;22.80;;;4.05;;
17494;SDS011;8864;51.970;4.614;2023-08-08T07:23:38;12.98;;;3.20;;
17494;SDS011;8864;51.970;4.614;2023-08-08T07:26:07;14.50;;;2.60;;
17494;SDS011;8864;51.970;4.614;2023-08-08T07:28:34;11.95;;;2.40;;
17494;SDS011;8864;51.970;4.614;2023-08-08T07:31:00;11.20;;;3.00;;
17494;SDS011;8864;51.970;4.614;2023-08-08T07:33:27;12.93;;;2.75;;
17494;SDS011;8864;51.970;4.614;2023-08-08T07:35:54;13.82;;;2.85;;
17494;SDS011;8864;51.970;4.614;2023-08-08T07:38:21;12.90;;;2.65;;
17494;SDS011;8864;51.970;4.614;2023-08-08T07:40:48;13.13;;;2.78;;
17494;SDS011;8864;51.970;4.614;2023-08-08T07:43:17;15.55;;;2.58;;
17494;SDS011;8864;51.970;4.614;2023-08-08T07:45:45;12.15;;;2.60;;
17494;SDS011;8864;51.970;4.614;2023-08-08T07:48:12;8.88;;;2.20;;
17494;SDS011;8864;51.970;4.614;2023-08-08T07:50:39;8.20;;;2.20;;
17494;SDS011;8864;51.970;4.614;2023-08-08T07:53:06;12.02;;;2.67;;
17494;SDS011;8864;51.970;4.614;2023-08-08T07:55:33;9.25;;;2.45;;
17494;SDS011;8864;51.970;4.614;2023-08-08T07:58:00;11.35;;;2.40;;
17494;SDS011;8864;51.970;4.614;2023-08-08T08:00:29;14.73;;;2.08;;
17494;SDS011;8864;51.970;4.614;2023-08-08T08:02:56;9.57;;;2.25;;
17494;SDS011;8864;51.970;4.614;2023-08-08T08:05:23;9.73;;;2.05;;
17494;SDS011;8864;51.970;4.614;2023-08-08T08:07:50;7.03;;;1.65;;
17494;SDS011;8864;51.970;4.614;2023-08-08T08:10:17;8.07;;;1.90;;
17494;SDS011;8864;51.970;4.614;2023-08-08T08:12:44;5.20;;;1.75;;
17494;SDS011;8864;51.970;4.614;2023-08-08T08:15:11;6.75;;;1.80;;
17494;SDS011;8864;51.970;4.614;2023-08-08T08:17:40;5.88;;;1.60;;
17494;SDS011;8864;51.970;4.614;2023-08-08T08:20:08;10.20;;;1.80;;
17494;SDS011;8864;51.970;4.614;2023-08-08T08:22:37;6.28;;;1.25;;
17494;SDS011;8864;51.970;4.614;2023-08-08T08:25:05;8.50;;;1.60;;
17494;SDS011;8864;51.970;4.614;2023-08-08T08:27:34;4.20;;;1.45;;
17494;SDS011;8864;51.970;4.614;2023-08-08T08:30:02;5.85;;;1.65;;
17494;SDS011;8864;51.970;4.614;2023-08-08T08:32:31;5.72;;;1.30;;
17494;SDS011;8864;51.970;4.614;2023-08-08T08:35:00;7.57;;;1.52;;
17494;SDS011;8864;51.970;4.614;2023-08-08T08:37:27;2.72;;;1.17;;
17494;SDS011;8864;51.970;4.614;2023-08-08T08:39:54;4.30;;;1.33;;
17494;SDS011;8864;51.970;4.614;2023-08-08T08:42:21;7.55;;;1.27;;
17494;SDS011;8864;51.970;4.614;2023-08-08T08:44:49;4.32;;;1.20;;
17494;SDS011;8864;51.970;4.614;2023-08-08T08:47:17;3.55;;;1.30;;
17494;SDS011;8864;51.970;4.614;2023-08-08T08:49:46;6.03;;;1.25;;
17494;SDS011;8864;51.970;4.614;2023-08-08T08:52:15;2.22;;;0.90;;
17494;SDS011;8864;51.970;4.614;2023-08-08T08:54:42;4.55;;;1.10;;
17494;SDS011;8864;51.970;4.614;2023-08-08T08:57:09;4.43;;;1.17;;
17494;SDS011;8864;51.970;4.614;2023-08-08T08:59:36;2.50;;;0.90;;
17494;SDS011;8864;51.970;4.614;2023-08-08T09:02:04;3.33;;;1.05;;
17494;SDS011;8864;51.970;4.614;2023-08-08T09:04:31;3.22;;;1.17;;
17494;SDS011;8864;51.970;4.614;2023-08-08T09:07:00;2.53;;;1.00;;
17494;SDS011;8864;51.970;4.614;2023-08-08T09:09:32;3.47;;;0.98;;
17494;SDS011;8864;51.970;4.614;2023-08-08T09:12:01;3.28;;;0.85;;
17494;SDS011;8864;51.970;4.614;2023-08-08T09:14:31;2.90;;;1.02;;
17494;SDS011;8864;51.970;4.614;2023-08-08T09:16:58;1.98;;;0.85;;
17494;SDS011;8864;51.970;4.614;2023-08-08T09:19:25;3.15;;;0.93;;
17494;SDS011;8864;51.970;4.614;2023-08-08T09:21:52;4.25;;;1.00;;
17494;SDS011;8864;51.970;4.614;2023-08-08T09:24:20;2.00;;;0.80;;
17494;SDS011;8864;51.970;4.614;2023-08-08T09:26:48;1.92;;;0.82;;
17494;SDS011;8864;51.970;4.614;2023-08-08T09:29:16;3.67;;;0.80;;
17494;SDS011;8864;51.970;4.614;2023-08-08T09:31:42;2.05;;;0.88;;
17494;SDS011;8864;51.970;4.614;2023-08-08T09:34:12;4.97;;;0.93;;
17494;SDS011;8864;51.970;4.614;2023-08-08T09:36:39;2.45;;;0.70;;
17494;SDS011;8864;51.970;4.614;2023-08-08T09:39:07;3.38;;;0.90;;
17494;SDS011;8864;51.970;4.614;2023-08-08T09:41:34;3.08;;;0.80;;
17494;SDS011;8864;51.970;4.614;2023-08-08T09:44:02;1.55;;;0.60;;
17494;SDS011;8864;51.970;4.614;2023-08-08T09:46:30;1.73;;;0.80;;
17494;SDS011;8864;51.970;4.614;2023-08-08T09:48:57;1.33;;;0.75;;
17494;SDS011;8864;51.970;4.614;2023-08-08T09:51:24;1.40;;;0.60;;
17494;SDS011;8864;51.970;4.614;2023-08-08T09:53:53;1.45;;;0.68;;
17494;SDS011;8864;51.970;4.614;2023-08-08T09:56:21;2.65;;;0.55;;
17494;SDS011;8864;51.970;4.614;2023-08-08T09:58:50;1.45;;;0.70;;
17494;SDS011;8864;51.970;4.614;2023-08-08T10:01:19;1.08;;;0.60;;
17494;SDS011;8864;51.970;4.614;2023-08-08T10:03:46;1.13;;;0.50;;
17494;SDS011;8864;51.970;4.614;2023-08-08T10:06:17;2.55;;;0.60;;
17494;SDS011;8864;51.970;4.614;2023-08-08T10:08:47;1.13;;;0.57;;
17494;SDS011;8864;51.970;4.614;2023-08-08T10:11:15;3.20;;;0.77;;
17494;SDS011;8864;51.970;4.614;2023-08-08T10:13:48;3.58;;;0.52;;
17494;SDS011;8864;51.970;4.614;2023-08-08T10:16:16;0.95;;;0.50;;
17494;SDS011;8864;51.970;4.614;2023-08-08T10:18:45;1.35;;;0.65;;
17494;SDS011;8864;51.970;4.614;2023-08-08T10:21:12;1.30;;;0.52;;
17494;SDS011;8864;51.970;4.614;2023-08-08T10:23:39;0.90;;;0.50;;
17494;SDS011;8864;51.970;4.614;2023-08-08T10:26:16;1.15;;;0.55;;
17494;SDS011;8864;51.970;4.614;2023-08-08T10:28:52;2.17;;;0.70;;
17494;SDS011;8864;51.970;4.614;2023-08-08T10:31:21;1.50;;;0.60;;
17494;SDS011;8864;51.970;4.614;2023-08-08T10:34:00;1.23;;;0.65;;
17494;SDS011;8864;51.970;4.614;2023-08-08T10:36:42;1.25;;;0.60;;
17494;SDS011;8864;51.970;4.614;2023-08-08T10:39:11;1.55;;;0.63;;
17494;SDS011;8864;51.970;4.614;2023-08-08T10:41:46;2.15;;;0.70;;
17494;SDS011;8864;51.970;4.614;2023-08-08T10:44:13;1.60;;;0.65;;
17494;SDS011;8864;51.970;4.614;2023-08-08T10:46:49;1.67;;;0.60;;
17494;SDS011;8864;51.970;4.614;2023-08-08T10:49:19;1.45;;;0.60;;
17494;SDS011;8864;51.970;4.614;2023-08-08T10:51:46;1.38;;;0.60;;
17494;SDS011;8864;51.970;4.614;2023-08-08T10:54:15;0.98;;;0.47;;
17494;SDS011;8864;51.970;4.614;2023-08-08T10:56:48;4.15;;;0.60;;
17494;SDS011;8864;51.970;4.614;2023-08-08T10:59:17;1.85;;;0.50;;
17494;SDS011;8864;51.970;4.614;2023-08-08T11:01:46;1.92;;;0.50;;
17494;SDS011;8864;51.970;4.614;2023-08-08T11:04:16;1.08;;;0.60;;
17494;SDS011;8864;51.970;4.614;2023-08-08T11:06:46;0.75;;;0.60;;
17494;SDS011;8864;51.970;4.614;2023-08-08T11:09:15;0.85;;;0.50;;
17494;SDS011;8864;51.970;4.614;2023-08-08T11:11:42;1.30;;;0.40;;
17494;SDS011;8864;51.970;4.614;2023-08-08T11:14:10;2.25;;;0.80;;
17494;SDS011;8864;51.970;4.614;2023-08-08T11:16:39;0.93;;;0.60;;
17494;SDS011;8864;51.970;4.614;2023-08-08T11:19:06;1.70;;;0.60;;
17494;SDS011;8864;51.970;4.614;2023-08-08T11:21:36;1.27;;;0.77;;
17494;SDS011;8864;51.970;4.614;2023-08-08T11:24:05;0.98;;;0.43;;
17494;SDS011;8864;51.970;4.614;2023-08-08T11:26:33;1.20;;;0.70;;
17494;SDS011;8864;51.970;4.614;2023-08-08T11:29:01;2.03;;;0.55;;
17494;SDS011;8864;51.970;4.614;2023-08-08T11:31:30;1.20;;;0.50;;
17494;SDS011;8864;51.970;4.614;2023-08-08T11:33:58;1.02;;;0.60;;
17494;SDS011;8864;51.970;4.614;2023-08-08T11:36:26;1.52;;;0.68;;
17494;SDS011;8864;51.970;4.614;2023-08-08T11:38:57;1.50;;;0.70;;
17494;SDS011;8864;51.970;4.614;2023-08-08T11:41:25;0.98;;;0.50;;
17494;SDS011;8864;51.970;4.614;2023-08-08T11:43:53;1.40;;;0.50;;
17494;SDS011;8864;51.970;4.614;2023-08-08T11:46:25;1.30;;;0.50;;
17494;SDS011;8864;51.970;4.614;2023-08-08T11:48:52;1.23;;;0.50;;
17494;SDS011;8864;51.970;4.614;2023-08-08T11:51:19;1.05;;;0.60;;
17494;SDS011;8864;51.970;4.614;2023-08-08T11:53:49;0.65;;;0.40;;
17494;SDS011;8864;51.970;4.614;2023-08-08T11:56:20;2.85;;;0.68;;
17494;SDS011;8864;51.970;4.614;2023-08-08T11:58:48;1.50;;;0.63;;
17494;SDS011;8864;51.970;4.614;2023-08-08T12:01:19;1.35;;;0.50;;
17494;SDS011;8864;51.970;4.614;2023-08-08T12:03:46;1.23;;;0.50;;
17494;SDS011;8864;51.970;4.614;2023-08-08T12:06:13;1.48;;;0.52;;
17494;SDS011;8864;51.970;4.614;2023-08-08T12:08:41;3.55;;;0.80;;
17494;SDS011;8864;51.970;4.614;2023-08-08T12:11:10;1.27;;;0.50;;
17494;SDS011;8864;51.970;4.614;2023-08-08T12:13:39;5.70;;;0.77;;
17494;SDS011;8864;51.970;4.614;2023-08-08T12:16:08;9.25;;;1.00;;
17494;SDS011;8864;51.970;4.614;2023-08-08T12:18:36;6.18;;;0.90;;
17494;SDS011;8864;51.970;4.614;2023-08-08T12:21:04;3.95;;;0.93;;
17494;SDS011;8864;51.970;4.614;2023-08-08T12:23:31;2.17;;;0.60;;
17494;SDS011;8864;51.970;4.614;2023-08-08T12:25:59;5.13;;;0.75;;
17494;SDS011;8864;51.970;4.614;2023-08-08T12:28:26;5.22;;;0.90;;
17494;SDS011;8864;51.970;4.614;2023-08-08T12:30:54;5.90;;;1.40;;
17494;SDS011;8864;51.970;4.614;2023-08-08T12:33:21;3.25;;;0.70;;
17494;SDS011;8864;51.970;4.614;2023-08-08T12:35:48;3.33;;;1.00;;
17494;SDS011;8864;51.970;4.614;2023-08-08T12:38:18;4.65;;;0.95;;
17494;SDS011;8864;51.970;4.614;2023-08-08T12:40:44;7.47;;;0.90;;
17494;SDS011;8864;51.970;4.614;2023-08-08T12:43:11;4.63;;;1.17;;
17494;SDS011;8864;51.970;4.614;2023-08-08T12:45:42;5.07;;;0.85;;
17494;SDS011;8864;51.970;4.614;2023-08-08T12:48:11;13.20;;;1.20;;
17494;SDS011;8864;51.970;4.614;2023-08-08T12:50:38;4.30;;;0.90;;
17494;SDS011;8864;51.970;4.614;2023-08-08T12:53:05;7.00;;;0.80;;
17494;SDS011;8864;51.970;4.614;2023-08-08T12:55:33;4.07;;;0.95;;
17494;SDS011;8864;51.970;4.614;2023-08-08T12:58:01;3.50;;;0.80;;
17494;SDS011;8864;51.970;4.614;2023-08-08T13:00:29;2.75;;;1.08;;
17494;SDS011;8864;51.970;4.614;2023-08-08T13:02:56;5.05;;;0.60;;
17494;SDS011;8864;51.970;4.614;2023-08-08T13:05:25;6.20;;;0.80;;
17494;SDS011;8864;51.970;4.614;2023-08-08T13:07:52;2.15;;;0.68;;
17494;SDS011;8864;51.970;4.614;2023-08-08T13:10:19;8.75;;;0.82;;
17494;SDS011;8864;51.970;4.614;2023-08-08T13:12:46;2.22;;;0.90;;
17494;SDS011;8864;51.970;4.614;2023-08-08T13:15:13;1.50;;;0.80;;
17494;SDS011;8864;51.970;4.614;2023-08-08T13:17:40;2.55;;;0.65;;
17494;SDS011;8864;51.970;4.614;2023-08-08T13:20:07;1.30;;;0.80;;
17494;SDS011;8864;51.970;4.614;2023-08-08T13:22:39;1.88;;;0.75;;
17494;SDS011;8864;51.970;4.614;2023-08-08T13:25:07;2.45;;;0.73;;
17494;SDS011;8864;51.970;4.614;2023-08-08T13:27:35;2.40;;;0.73;;
17494;SDS011;8864;51.970;4.614;2023-08-08T13:30:02;2.28;;;0.80;;
17494;SDS011;8864;51.970;4.614;2023-08-08T13:32:30;3.45;;;0.63;;
17494;SDS011;8864;51.970;4.614;2023-08-08T13:34:57;3.45;;;1.00;;
17494;SDS011;8864;51.970;4.614;2023-08-08T13:37:24;3.55;;;0.73;;
17494;SDS011;8864;51.970;4.614;2023-08-08T13:39:52;0.93;;;0.60;;
17494;SDS011;8864;51.970;4.614;2023-08-08T13:42:20;1.10;;;0.50;;
17494;SDS011;8864;51.970;4.614;2023-08-08T13:44:46;3.03;;;0.63;;
17494;SDS011;8864;51.970;4.614;2023-08-08T13:47:14;1.98;;;0.77;;
17494;SDS011;8864;51.970;4.614;2023-08-08T13:49:41;2.25;;;0.73;;
17494;SDS011;8864;51.970;4.614;2023-08-08T13:52:08;3.75;;;0.82;;
17494;SDS011;8864;51.970;4.614;2023-08-08T13:54:35;2.15;;;0.80;;
17494;SDS011;8864;51.970;4.614;2023-08-08T13:57:04;6.70;;;0.70;;
17494;SDS011;8864;51.970;4.614;2023-08-08T13:59:31;4.15;;;0.90;;
17494;SDS011;8864;51.970;4.614;2023-08-08T14:01:58;3.20;;;1.00;;
17494;SDS011;8864;51.970;4.614;2023-08-08T14:04:25;3.90;;;0.75;;
17494;SDS011;8864;51.970;4.614;2023-08-08T14:06:52;4.63;;;0.98;;
17494;SDS011;8864;51.970;4.614;2023-08-08T14:09:19;3.05;;;0.90;;
17494;SDS011;8864;51.970;4.614;2023-08-08T14:11:47;3.72;;;1.00;;
17494;SDS011;8864;51.970;4.614;2023-08-08T14:14:16;3.25;;;1.02;;
17494;SDS011;8864;51.970;4.614;2023-08-08T14:16:43;2.15;;;0.65;;
17494;SDS011;8864;51.970;4.614;2023-08-08T14:19:10;6.03;;;1.00;;
17494;SDS011;8864;51.970;4.614;2023-08-08T14:21:38;6.53;;;0.90;;
17494;SDS011;8864;51.970;4.614;2023-08-08T14:24:05;3.20;;;0.88;;
17494;SDS011;8864;51.970;4.614;2023-08-08T14:26:32;1.38;;;0.73;;
17494;SDS011;8864;51.970;4.614;2023-08-08T14:29:00;5.07;;;0.90;;
17494;SDS011;8864;51.970;4.614;2023-08-08T14:31:28;2.90;;;1.13;;
17494;SDS011;8864;51.970;4.614;2023-08-08T14:33:55;3.45;;;0.93;;
17494;SDS011;8864;51.970;4.614;2023-08-08T14:36:22;2.63;;;0.90;;
17494;SDS011;8864;51.970;4.614;2023-08-08T14:38:49;2.63;;;0.90;;
17494;SDS011;8864;51.970;4.614;2023-08-08T14:41:16;3.47;;;1.05;;
17494;SDS011;8864;51.970;4.614;2023-08-08T14:43:43;2.90;;;1.10;;
17494;SDS011;8864;51.970;4.614;2023-08-08T14:46:10;9.68;;;1.00;;
17494;SDS011;8864;51.970;4.614;2023-08-08T14:48:39;1.63;;;0.90;;
17494;SDS011;8864;51.970;4.614;2023-08-08T14:51:06;5.50;;;1.17;;
17494;SDS011;8864;51.970;4.614;2023-08-08T14:53:33;3.83;;;0.98;;
17494;SDS011;8864;51.970;4.614;2023-08-08T14:56:00;4.68;;;1.20;;
17494;SDS011;8864;51.970;4.614;2023-08-08T14:58:27;3.72;;;1.10;;
17494;SDS011;8864;51.970;4.614;2023-08-08T15:00:54;2.72;;;0.95;;
17494;SDS011;8864;51.970;4.614;2023-08-08T15:03:21;3.55;;;1.20;;